Aviation Digital Data Service (ADDS)

Output produced by METARs form (0326 UTC 25 October 2014)
found at http://www.aviationweather.gov/adds/metars/
 
KCMI 250109Z 2501/2524 20006KT 4SM BR BKN250 
     FM250400 21005KT P6SM SCT025 
     FM251100 24003KT 2SM BR SCT025 
     FM251400 29008KT P6SM SCT015 
     FM251800 31010KT P6SM SKC